Time;durP1;ratioP1;P1;durP2;ratioP2;P2;SDS_P1;SDS_P2;PMS_P1;PMS_P2;Temp;Humidity;BMP_temperature;BMP_pressure;BME280_temperature;BME280_humidity;BME280_pressure;Samples;Min_cycle;Max_cycle;Signal;HPM_P1;HPM_P2
2022/10/26 00:02:07;;;;;;;16.80;10.38;;;;;;;10.04;100.00;101320.13;5006999;28;20029;-64
2022/10/26 00:04:33;;;;;;;15.93;10.02;;;;;;;10.06;100.00;101316.09;5007034;28;20128;-63
2022/10/26 00:06:58;;;;;;;16.35;10.00;;;;;;;10.07;100.00;101314.19;5006237;28;20049;-64
2022/10/26 00:09:23;;;;;;;15.45;9.52;;;;;;;10.08;100.00;101311.22;5005759;28;20057;-64
2022/10/26 00:11:49;;;;;;;13.68;9.43;;;;;;;10.08;100.00;101311.22;5006232;28;20516;-65
2022/10/26 00:14:14;;;;;;;16.45;10.20;;;;;;;10.10;100.00;101308.28;5007907;28;20044;-64
2022/10/26 00:16:39;;;;;;;14.77;9.88;;;;;;;10.12;100.00;101296.00;5007505;28;20069;-64
2022/10/26 00:19:05;;;;;;;14.32;9.73;;;;;;;10.11;100.00;101299.81;5007671;28;20075;-64
2022/10/26 00:21:30;;;;;;;17.33;10.23;;;;;;;10.14;100.00;101288.41;5006402;28;20022;-64
2022/10/26 00:23:58;;;;;;;15.52;9.68;;;;;;;10.14;100.00;101288.41;5006132;28;20065;-64
2022/10/26 00:26:23;;;;;;;15.27;9.95;;;;;;;10.17;100.00;101276.13;5008006;28;20034;-64
2022/10/26 00:28:51;;;;;;;15.13;9.27;;;;;;;10.18;100.00;101282.47;5006180;28;20038;-65
2022/10/26 00:31:17;;;;;;;15.60;9.55;;;;;;;10.21;100.00;101277.41;5008246;28;20069;-64
2022/10/26 00:33:42;;;;;;;15.00;9.48;;;;;;;10.23;100.00;101275.25;5006913;28;20431;-64
2022/10/26 00:36:09;;;;;;;16.83;9.68;;;;;;;10.25;100.00;101278.69;5006512;28;20481;-64
2022/10/26 00:38:34;;;;;;;19.95;9.80;;;;;;;10.27;100.00;101275.72;5006021;28;20057;-64
2022/10/26 00:40:59;;;;;;;14.68;9.38;;;;;;;10.32;100.00;101281.38;5007452;28;20160;-63
2022/10/26 00:43:27;;;;;;;14.45;9.77;;;;;;;10.33;100.00;101263.84;5006394;28;20038;-64
2022/10/26 00:45:56;;;;;;;20.05;9.88;;;;;;;10.35;100.00;101264.50;5005988;28;20028;-63
2022/10/26 00:48:28;;;;;;;16.80;9.88;;;;;;;10.40;100.00;101259.19;5006285;28;20044;-64
2022/10/26 00:50:57;;;;;;;15.15;8.85;;;;;;;10.46;100.00;101251.97;5006937;28;20030;-64
2022/10/26 00:53:23;;;;;;;15.50;9.50;;;;;;;10.47;100.00;101253.63;5007071;28;20026;-63
2022/10/26 00:55:51;;;;;;;17.15;9.95;;;;;;;10.50;100.00;101253.22;5006063;28;20026;-65
2022/10/26 00:58:18;;;;;;;16.20;9.77;;;;;;;10.52;100.00;101267.56;5007443;28;20091;-64
2022/10/26 01:00:43;;;;;;;17.17;10.00;;;;;;;10.54;100.00;101276.41;5007012;28;20053;-64
2022/10/26 01:03:10;;;;;;;17.58;9.63;;;;;;;10.57;100.00;101265.81;5004982;28;20072;-64
2022/10/26 01:05:40;;;;;;;18.90;10.45;;;;;;;10.61;100.00;101275.31;5006051;28;20064;-64
2022/10/26 01:08:07;;;;;;;16.35;9.82;;;;;;;10.66;100.00;101271.91;5004627;28;20589;-64
2022/10/26 01:10:34;;;;;;;16.40;9.25;;;;;;;10.68;100.00;101268.94;5006857;28;20025;-63
2022/10/26 01:13:01;;;;;;;15.77;9.65;;;;;;;10.69;100.00;101270.59;5004646;28;20064;-64
2022/10/26 01:15:40;;;;;;;16.85;9.98;;;;;;;10.72;100.00;101267.44;5007065;28;20385;-63
2022/10/26 01:18:16;;;;;;;15.38;9.55;;;;;;;10.72;100.00;101260.03;5005033;28;20465;-63
2022/10/26 01:20:55;;;;;;;17.17;9.75;;;;;;;10.75;100.00;101256.00;5005719;28;20113;-64
2022/10/26 01:23:41;;;;;;;18.95;10.85;;;;;;;10.74;100.00;101252.41;5005448;28;20087;-64
2022/10/26 01:26:42;;;;;;;19.58;10.80;;;;;;;10.77;100.00;101248.38;5005950;28;21604;-63
2022/10/26 01:29:29;;;;;;;16.92;10.68;;;;;;;10.72;100.00;101246.28;4981732;28;20133;-64
2022/10/26 01:31:58;;;;;;;20.80;10.27;;;;;;;10.72;100.00;101243.53;5005198;28;20037;-64
2022/10/26 01:34:34;;;;;;;15.32;10.40;;;;;;;10.73;100.00;101242.47;5006884;28;20026;-64
2022/10/26 01:37:09;;;;;;;16.10;9.85;;;;;;;10.71;100.00;101247.38;5004944;28;20030;-63
2022/10/26 01:39:46;;;;;;;15.63;10.38;;;;;;;10.75;100.00;101242.28;5005419;28;20035;-64
2022/10/26 01:42:15;;;;;;;17.27;11.02;;;;;;;10.73;100.00;101234.25;5006394;28;20030;-64
2022/10/26 01:44:46;;;;;;;16.20;10.05;;;;;;;10.74;100.00;101230.41;5006961;28;20464;-63
2022/10/26 01:47:14;;;;;;;17.55;10.07;;;;;;;10.75;100.00;101220.31;5005952;28;20034;-63
2022/10/26 01:49:48;;;;;;;16.13;10.50;;;;;;;10.77;100.00;101224.50;5004084;28;20034;-63
2022/10/26 01:52:14;;;;;;;20.60;10.43;;;;;;;10.77;100.00;101219.00;5000840;28;20055;-64
2022/10/26 01:54:39;;;;;;;19.73;10.80;;;;;;;10.78;100.00;101222.59;5005681;28;20036;-63
2022/10/26 01:57:07;;;;;;;19.80;10.65;;;;;;;10.76;100.00;101214.56;5006129;28;20030;-64
2022/10/26 01:59:51;;;;;;;14.27;9.90;;;;;;;10.80;100.00;101206.72;5005723;28;20033;-63
2022/10/26 02:02:44;;;;;;;16.92;9.85;;;;;;;10.76;100.00;101208.25;5010715;28;20042;-63
2022/10/26 02:05:34;;;;;;;17.45;10.40;;;;;;;10.77;100.00;101205.25;5009730;28;20061;-63
2022/10/26 02:08:13;;;;;;;17.30;10.18;;;;;;;10.78;100.00;101200.59;5009016;28;20033;-64
2022/10/26 02:11:02;;;;;;;15.18;9.10;;;;;;;10.77;100.00;101199.75;5009612;28;20396;-63
2022/10/26 02:13:54;;;;;;;15.45;9.85;;;;;;;10.76;100.00;101208.25;5008186;28;20550;-63
2022/10/26 02:16:50;;;;;;;16.38;10.10;;;;;;;10.73;100.00;101212.25;5009331;28;20421;-63
2022/10/26 02:19:44;;;;;;;17.77;9.70;;;;;;;10.68;100.00;101214.84;5008771;28;20084;-63
2022/10/26 02:22:18;;;;;;;17.60;9.35;;;;;;;10.63;100.00;101214.66;5006636;28;20069;-63
2022/10/26 02:24:46;;;;;;;15.77;9.70;;;;;;;10.62;100.00;101207.50;5010078;28;20037;-63
2022/10/26 02:27:19;;;;;;;16.45;9.82;;;;;;;10.61;100.00;101200.31;5007519;28;20025;-64
2022/10/26 02:29:47;;;;;;;17.27;9.23;;;;;;;10.60;100.00;101204.97;5009492;28;20770;-63
2022/10/26 02:32:12;;;;;;;;;;;;;;;10.68;100.00;101200.25;5008999;28;20030;-64
2022/10/26 02:34:42;;;;;;;16.88;9.02;;;;;;;10.61;100.00;101190.16;5008873;28;19928;-63
2022/10/26 02:37:07;;;;;;;16.13;8.93;;;;;;;10.64;100.00;101199.84;5008568;28;20109;-64
2022/10/26 02:39:35;;;;;;;17.13;9.93;;;;;;;10.65;100.00;101193.31;5008583;28;20153;-63
2022/10/26 02:42:03;;;;;;;14.27;8.82;;;;;;;10.67;100.00;101187.59;5008639;28;20026;-64
2022/10/26 02:44:35;;;;;;;18.30;9.63;;;;;;;10.70;100.00;101187.16;5009074;28;20036;-64
2022/10/26 02:47:01;;;;;;;16.95;10.77;;;;;;;10.72;100.00;101185.03;5010037;28;20030;-63
2022/10/26 02:49:27;;;;;;;16.75;10.13;;;;;;;10.73;100.00;101182.03;5009098;28;20041;-63
2022/10/26 02:52:05;;;;;;;19.45;10.20;;;;;;;10.73;100.00;101176.53;5008680;28;20026;-64
2022/10/26 02:54:52;;;;;;;16.63;9.90;;;;;;;10.75;100.00;101179.94;5009150;28;20108;-63
2022/10/26 02:57:39;;;;;;;20.92;10.00;;;;;;;10.77;100.00;101188.78;5008234;28;20300;-64
2022/10/26 03:00:11;;;;;;;16.77;10.02;;;;;;;10.76;100.00;101180.75;5008760;28;20030;-64
2022/10/26 03:02:36;;;;;;;15.77;9.73;;;;;;;10.74;100.00;101169.97;5007984;28;20034;-64
2022/10/26 03:05:13;;;;;;;16.38;10.52;;;;;;;10.77;100.00;101183.28;5008678;28;20033;-64
2022/10/26 03:07:38;;;;;;;18.27;10.82;;;;;;;10.76;100.00;101178.03;5008866;28;20034;-63
2022/10/26 03:10:04;;;;;;;18.95;10.63;;;;;;;10.75;100.00;101171.69;5008120;28;20033;-63
2022/10/26 03:12:29;;;;;;;16.27;10.38;;;;;;;10.75;100.00;101170.84;5007222;28;20476;-64
2022/10/26 03:14:54;;;;;;;14.73;9.85;;;;;;;10.74;100.00;101175.47;5008190;28;20381;-64
2022/10/26 03:17:20;;;;;;;17.08;10.50;;;;;;;10.74;100.00;101169.13;5004256;28;20037;-64
2022/10/26 03:19:45;;;;;;;14.40;9.40;;;;;;;10.74;100.00;101174.63;5008696;28;20069;-63
2022/10/26 03:22:10;;;;;;;17.80;10.50;;;;;;;10.75;100.00;101168.09;5005791;28;20022;-64
2022/10/26 03:24:35;;;;;;;20.80;10.13;;;;;;;10.75;100.00;101170.84;5007211;28;20389;-64
2022/10/26 03:27:01;;;;;;;16.88;10.00;;;;;;;10.77;100.00;101168.69;5008857;28;20084;-64
2022/10/26 03:29:26;;;;;;;14.02;9.30;;;;;;;10.77;100.00;101171.44;5007408;28;20044;-63
2022/10/26 03:31:53;;;;;;;15.75;9.00;;;;;;;10.77;100.00;101169.53;5008319;28;20088;-64
2022/10/26 03:34:19;;;;;;;18.45;8.40;;;;;;;10.78;100.00;101171.22;5009026;28;20580;-65
2022/10/26 03:36:45;;;;;;;15.40;8.63;;;;;;;10.79;100.00;101169.31;5006470;28;20026;-64
2022/10/26 03:39:10;;;;;;;14.30;8.93;;;;;;;10.80;100.00;101166.34;5006962;28;20033;-63
2022/10/26 03:41:35;;;;;;;16.90;8.70;;;;;;;10.82;100.00;101168.88;5008342;28;20045;-64
2022/10/26 03:44:01;;;;;;;15.27;8.80;;;;;;;10.83;100.00;101163.13;5008248;28;20030;-64
2022/10/26 03:46:26;;;;;;;16.08;8.98;;;;;;;10.82;100.00;101158.72;5006306;28;20053;-64
2022/10/26 03:48:51;;;;;;;16.00;8.70;;;;;;;10.84;100.00;101167.56;5006386;28;20048;-64
2022/10/26 03:51:16;;;;;;;16.35;8.32;;;;;;;10.84;100.00;101162.06;5007633;28;20026;-63
2022/10/26 03:53:42;;;;;;;15.23;8.57;;;;;;;10.84;100.00;101166.72;5008050;28;20072;-63
2022/10/26 03:56:07;;;;;;;14.23;8.07;;;;;;;10.85;100.00;101166.53;5008467;28;20030;-64
2022/10/26 03:58:32;;;;;;;16.17;7.70;;;;;;;10.86;100.00;101164.63;5006477;28;20064;-63
2022/10/26 04:00:58;;;;;;;12.40;7.80;;;;;;;10.85;100.00;101161.03;5006212;28;20407;-64
2022/10/26 04:03:23;;;;;;;13.25;7.75;;;;;;;10.85;100.00;101152.78;5007040;28;20038;-64
2022/10/26 04:05:48;;;;;;;15.57;7.78;;;;;;;10.83;100.00;101157.66;5006771;28;20046;-65
2022/10/26 04:08:14;;;;;;;14.82;8.32;;;;;;;10.82;100.00;101158.72;5004431;28;20030;-63
2022/10/26 04:10:39;;;;;;;14.57;7.72;;;;;;;10.82;100.00;101161.47;5007084;28;20033;-63
2022/10/26 04:13:04;;;;;;;15.48;8.50;;;;;;;10.81;100.00;101167.19;5006075;28;20594;-64
2022/10/26 04:15:29;;;;;;;14.63;7.63;;;;;;;10.79;100.00;101166.56;5006816;28;20068;-64
2022/10/26 04:18:00;;;;;;;15.15;7.90;;;;;;;10.81;100.00;101167.19;5006023;28;20054;-63
2022/10/26 04:20:27;;;;;;;15.73;8.43;;;;;;;10.79;100.00;101167.41;5006261;28;20084;-64
2022/10/26 04:23:00;;;;;;;14.57;7.47;;;;;;;10.81;100.00;101168.03;5007184;28;20025;-64
2022/10/26 04:25:25;;;;;;;12.48;7.43;;;;;;;10.83;100.00;101165.06;5007810;28;20409;-64
2022/10/26 04:27:51;;;;;;;15.68;7.57;;;;;;;10.82;100.00;101164.22;5006930;28;20075;-64
2022/10/26 04:30:16;;;;;;;15.73;7.45;;;;;;;10.83;100.00;101157.66;5008115;28;20029;-64
2022/10/26 04:32:42;;;;;;;15.50;7.57;;;;;;;10.84;100.00;101156.56;5006012;28;20033;-63
2022/10/26 04:35:07;;;;;;;14.98;7.45;;;;;;;10.87;100.00;101155.31;5005415;28;20037;-64
2022/10/26 04:37:32;;;;;;;15.10;8.00;;;;;;;10.87;100.00;101150.66;5005488;28;20033;-64
2022/10/26 04:39:58;;;;;;;13.90;7.60;;;;;;;10.89;100.00;101155.91;5006889;28;20107;-64
2022/10/26 04:42:23;;;;;;;15.32;7.47;;;;;;;10.90;100.00;101144.72;5007480;28;20530;-64
2022/10/26 04:44:48;;;;;;;15.05;8.50;;;;;;;10.91;100.00;101146.38;5007281;28;20034;-65
2022/10/26 04:47:13;;;;;;;13.52;7.95;;;;;;;10.94;100.00;101147.00;5007740;28;20071;-64
2022/10/26 04:49:39;;;;;;;15.07;8.38;;;;;;;10.95;100.00;101143.16;5006206;28;20048;-64
2022/10/26 04:52:05;;;;;;;15.48;7.63;;;;;;;10.98;100.00;101148.22;5005981;28;20599;-64
2022/10/26 04:54:30;;;;;;;15.55;8.60;;;;;;;10.98;100.00;101149.06;5006820;28;20042;-64
2022/10/26 04:56:55;;;;;;;13.35;8.77;;;;;;;11.00;100.00;101148.81;5006813;28;20030;-64
2022/10/26 04:59:20;;;;;;;13.60;8.20;;;;;;;11.02;100.00;101150.28;5007283;28;20068;-64
2022/10/26 05:01:46;;;;;;;15.48;8.82;;;;;;;11.03;100.00;101149.22;5006549;28;20034;-63
2022/10/26 05:04:11;;;;;;;14.18;8.70;;;;;;;11.06;100.00;101158.94;5006840;28;20030;-63
2022/10/26 05:06:37;;;;;;;14.38;9.20;;;;;;;11.08;100.00;101156.78;5006421;28;20022;-64
2022/10/26 05:09:02;;;;;;;16.33;8.63;;;;;;;11.10;100.00;101157.38;5005345;28;20145;-64
2022/10/26 05:11:27;;;;;;;12.90;8.57;;;;;;;11.11;100.00;101157.19;5006270;28;20623;-63
2022/10/26 05:13:53;;;;;;;16.27;8.90;;;;;;;11.14;100.00;101156.72;5006174;28;20496;-63
2022/10/26 05:16:18;;;;;;;17.27;8.65;;;;;;;11.16;100.00;101154.59;5007529;28;20034;-64
2022/10/26 05:18:47;;;;;;;15.27;8.50;;;;;;;11.20;100.00;101162.38;5007366;28;20030;-64
2022/10/26 05:21:18;;;;;;;14.68;9.07;;;;;;;11.21;100.00;101162.16;5004206;28;20133;-64
2022/10/26 05:23:43;;;;;;;18.50;9.02;;;;;;;11.24;100.00;101158.94;5004534;28;20112;-63
2022/10/26 05:26:08;;;;;;;14.07;9.15;;;;;;;11.26;100.00;101161.50;5005375;28;20114;-63
2022/10/26 05:28:34;;;;;;;15.90;8.85;;;;;;;11.27;100.00;101160.41;5007363;28;20045;-63
2022/10/26 05:30:59;;;;;;;13.63;7.90;;;;;;;11.27;100.00;101157.66;5006822;28;20532;-64
2022/10/26 05:33:24;;;;;;;22.52;9.27;;;;;;;11.29;100.00;101161.00;5005947;28;20034;-64
2022/10/26 05:35:53;;;;;;;19.23;8.73;;;;;;;11.30;100.00;101163.53;5012793;28;20029;-64
2022/10/26 05:38:18;;;;;;;11.73;7.93;;;;;;;11.30;100.00;101165.44;5013042;28;20037;-65
2022/10/26 05:40:47;;;;;;;17.70;9.00;;;;;;;11.28;100.00;101171.19;5013451;28;20427;-63
2022/10/26 05:43:13;;;;;;;16.52;8.40;;;;;;;11.26;100.00;101167.81;5012096;28;20022;-64
2022/10/26 05:45:38;;;;;;;14.15;8.75;;;;;;;11.27;100.00;101161.25;5011436;28;20128;-64
2022/10/26 05:48:04;;;;;;;17.55;8.70;;;;;;;11.28;100.00;101164.84;5012217;28;20030;-63
2022/10/26 05:50:29;;;;;;;18.63;8.30;;;;;;;11.27;100.00;101171.41;5012296;28;20049;-63
2022/10/26 05:52:55;;;;;;;15.15;8.85;;;;;;;11.26;100.00;101167.81;5012170;28;20124;-64
2022/10/26 05:55:20;;;;;;;19.95;8.80;;;;;;;11.25;100.00;101174.38;5012639;28;20036;-64
2022/10/26 05:57:46;;;;;;;16.42;8.48;;;;;;;11.25;100.00;101174.38;5013552;28;20248;-63
2022/10/26 06:00:21;;;;;;;18.60;7.78;;;;;;;11.26;100.00;101178.81;5013247;28;20122;-63
2022/10/26 06:03:11;;;;;;;18.13;9.23;;;;;;;11.31;100.00;101187.22;5012538;28;20036;-63
2022/10/26 06:05:55;;;;;;;15.52;9.10;;;;;;;11.32;100.00;101180.66;5013079;28;20049;-64
2022/10/26 06:08:22;;;;;;;17.00;8.57;;;;;;;11.31;100.00;101189.97;5011840;28;20026;-64
2022/10/26 06:10:49;;;;;;;17.13;8.07;;;;;;;11.33;100.00;101187.84;5012210;28;20049;-64
2022/10/26 06:13:15;;;;;;;19.75;8.85;;;;;;;11.37;100.00;101194.56;5011684;28;20052;-64
2022/10/26 06:16:03;;;;;;;18.25;8.45;;;;;;;11.38;100.00;101189.91;5010484;28;20036;-64
2022/10/26 06:18:35;;;;;;;19.33;8.95;;;;;;;11.41;100.00;101192.22;4982617;28;20070;-64
2022/10/26 06:21:26;;;;;;;16.70;8.80;;;;;;;11.41;100.00;101184.78;5007929;28;20026;-64
2022/10/26 06:23:57;;;;;;;20.42;8.75;;;;;;;11.43;100.00;101195.56;5008512;28;20030;-64
2022/10/26 06:26:39;;;;;;;17.05;8.70;;;;;;;11.44;100.00;101195.31;5013276;28;20018;-64
2022/10/26 06:29:32;;;;;;;18.60;9.00;;;;;;;11.46;100.00;101197.03;5012736;28;20036;-64
2022/10/26 06:31:58;;;;;;;18.80;9.13;;;;;;;11.44;100.00;101195.31;4993713;28;20050;-64
2022/10/26 06:34:32;;;;;;;18.08;9.20;;;;;;;11.43;100.00;101193.66;4993884;28;20373;-64
2022/10/26 06:36:59;;;;;;;17.65;8.55;;;;;;;11.40;100.00;101188.63;5010961;28;20079;-64
2022/10/26 06:39:28;;;;;;;17.80;9.30;;;;;;;11.37;100.00;101193.72;5007616;28;20038;-64
2022/10/26 06:41:56;;;;;;;15.77;9.07;;;;;;;11.35;100.00;101191.22;4993601;28;20026;-64
2022/10/26 06:44:22;;;;;;;22.08;9.20;;;;;;;11.34;100.00;101184.00;4993822;28;20037;-65
2022/10/26 06:46:56;;;;;;;17.55;8.98;;;;;;;11.32;100.00;101188.06;5006013;28;20034;-64
2022/10/26 06:49:39;;;;;;;17.70;8.95;;;;;;;11.33;100.00;101182.34;5009248;28;20036;-64
2022/10/26 06:52:14;;;;;;;17.10;9.10;;;;;;;11.35;100.00;101185.72;5008259;28;20022;-64
2022/10/26 06:54:48;;;;;;;17.20;9.00;;;;;;;11.40;100.00;101183.13;5009773;28;20184;-64
2022/10/26 06:57:15;;;;;;;17.80;9.18;;;;;;;11.47;100.00;101183.03;5009053;28;20117;-63
2022/10/26 06:59:52;;;;;;;15.70;9.35;;;;;;;11.55;100.00;101173.63;5008280;28;20376;-63
2022/10/26 07:02:18;;;;;;;19.63;9.13;;;;;;;11.59;100.00;101174.84;5009641;28;20096;-64
2022/10/26 07:04:44;;;;;;;20.48;9.55;;;;;;;11.62;100.00;101177.16;5007870;28;20028;-65
2022/10/26 07:07:17;;;;;;;23.63;9.27;;;;;;;11.65;100.00;101185.78;5009201;28;20034;-65
2022/10/26 07:09:42;;;;;;;18.45;9.13;;;;;;;11.69;100.00;101184.25;5009315;28;20387;-65
2022/10/26 07:12:07;;;;;;;17.48;8.55;;;;;;;11.73;100.00;101181.06;5008969;28;20026;-65
2022/10/26 07:14:33;;;;;;;14.82;8.70;;;;;;;11.74;100.00;101188.22;5007005;28;20041;-65
2022/10/26 07:16:58;;;;;;;19.58;8.82;;;;;;;11.75;100.00;101199.00;5008673;28;20037;-65
2022/10/26 07:19:24;;;;;;;17.77;9.07;;;;;;;11.74;100.00;101200.06;5008986;28;20026;-65
2022/10/26 07:21:49;;;;;;;15.93;8.80;;;;;;;11.74;100.00;101205.56;5007929;28;20029;-66
2022/10/26 07:24:14;;;;;;;18.58;8.95;;;;;;;11.78;100.00;101211.47;5008643;28;20113;-65
2022/10/26 07:26:39;;;;;;;16.40;8.98;;;;;;;11.81;100.00;101216.50;5008471;28;20022;-65
2022/10/26 07:29:05;;;;;;;15.02;8.90;;;;;;;11.84;100.00;101216.09;5008612;28;20038;-65
2022/10/26 07:31:30;;;;;;;19.10;9.38;;;;;;;11.88;100.00;101218.16;5007571;28;20033;-65
2022/10/26 07:33:55;;;;;;;18.98;8.85;;;;;;;11.93;100.00;101221.03;5006451;28;20030;-65
2022/10/26 07:36:21;;;;;;;17.25;9.52;;;;;;;11.98;100.00;101227.78;5007857;28;20022;-65
2022/10/26 07:38:46;;;;;;;14.75;8.45;;;;;;;12.05;100.00;101220.25;5008205;28;20056;-65
2022/10/26 07:41:11;;;;;;;17.75;10.10;;;;;;;12.14;100.00;101232.66;5008284;28;20049;-65
2022/10/26 07:43:37;;;;;;;16.73;8.85;;;;;;;12.19;100.00;101216.28;5007727;28;20060;-65
2022/10/26 07:46:02;;;;;;;19.05;9.30;;;;;;;12.26;100.00;101222.53;5007590;28;20492;-65
2022/10/26 07:48:27;;;;;;;17.60;9.10;;;;;;;12.33;100.00;101228.78;5007923;28;20516;-65
2022/10/26 07:50:53;;;;;;;14.93;9.82;;;;;;;12.41;100.00;101228.44;5007809;28;20136;-65
2022/10/26 07:53:18;;;;;;;20.60;9.98;;;;;;;12.52;100.00;101235.09;5007523;28;20380;-65
2022/10/26 07:55:51;;;;;;;18.33;10.13;;;;;;;12.68;100.00;101248.22;5009475;28;20022;-65
2022/10/26 07:58:18;;;;;;;16.08;9.63;;;;;;;12.91;100.00;101254.84;5007029;28;20116;-65
2022/10/26 08:00:43;;;;;;;16.80;8.85;;;;;;;13.11;100.00;101263.63;5007444;28;20077;-65
2022/10/26 08:03:08;;;;;;;14.10;9.25;;;;;;;13.21;100.00;101258.41;5007605;28;20069;-65
2022/10/26 08:05:34;;;;;;;17.63;8.38;;;;;;;13.28;100.00;101249.16;5007853;28;20033;-65
2022/10/26 08:07:59;;;;;;;14.82;7.75;;;;;;;13.38;100.00;101250.28;5016830;28;20385;-65
2022/10/26 08:10:25;;;;;;;18.10;8.05;;;;;;;13.49;100.00;101257.72;5006166;28;20048;-65
2022/10/26 08:12:51;;;;;;;13.65;7.57;;;;;;;13.60;100.00;101264.31;5007850;28;20080;-65
2022/10/26 08:15:17;;;;;;;15.75;7.53;;;;;;;13.90;100.00;101260.56;5004003;28;20033;-65
2022/10/26 08:17:42;;;;;;;16.45;7.18;;;;;;;14.04;98.91;101270.28;5006665;28;20040;-65
2022/10/26 08:20:08;;;;;;;15.20;7.63;;;;;;;14.32;98.54;101266.69;5007250;28;20022;-64
2022/10/26 08:22:33;;;;;;;15.68;7.75;;;;;;;14.95;94.41;101270.38;5006907;28;20030;-64
2022/10/26 08:24:58;;;;;;;14.77;7.13;;;;;;;15.14;93.02;101263.53;5007588;28;20377;-65
2022/10/26 08:27:24;;;;;;;16.48;7.28;;;;;;;15.12;92.07;101264.91;4998720;28;20041;-65
2022/10/26 08:29:49;;;;;;;13.93;7.93;;;;;;;14.98;92.68;101258.84;5003641;28;20368;-65
2022/10/26 08:32:14;;;;;;;16.33;7.53;;;;;;;15.19;94.33;101268.31;5008700;28;20060;-65
2022/10/26 08:34:40;;;;;;;15.85;6.88;;;;;;;15.90;88.29;101265.84;5005919;28;20675;-65
2022/10/26 08:37:05;;;;;;;14.50;7.00;;;;;;;16.91;84.25;101269.00;5008086;28;20032;-64
2022/10/26 08:39:30;;;;;;;11.75;6.40;;;;;;;18.39;77.76;101265.28;5006917;28;20296;-64
2022/10/26 08:42:13;;;;;;;13.02;5.80;;;;;;;19.03;77.70;101277.16;5007974;28;20034;-65
2022/10/26 08:44:45;;;;;;;11.85;5.20;;;;;;;19.30;72.51;101274.94;5008228;28;20455;-64
2022/10/26 08:47:18;;;;;;;11.50;5.88;;;;;;;19.99;70.81;101262.31;5007930;28;20030;-64
2022/10/26 08:50:11;;;;;;;12.00;4.68;;;;;;;21.33;68.15;101271.63;5002092;28;20097;-65
2022/10/26 08:53:02;;;;;;;11.85;4.97;;;;;;;22.10;62.55;101271.69;4995278;28;20604;-65
2022/10/26 08:55:51;;;;;;;9.13;4.30;;;;;;;22.54;61.14;101268.63;5000613;28;20040;-65
2022/10/26 08:58:24;;;;;;;9.27;4.63;;;;;;;23.19;57.99;101270.78;4999339;28;20038;-65
2022/10/26 09:00:50;;;;;;;12.38;4.50;;;;;;;23.71;55.03;101258.38;4997018;28;20042;-65
2022/10/26 09:03:17;;;;;;;10.15;3.85;;;;;;;24.20;54.42;101265.28;5003438;28;20037;-64
2022/10/26 09:05:57;;;;;;;14.35;4.88;;;;;;;25.25;56.24;101253.13;4999220;28;20030;-64
2022/10/26 09:08:28;;;;;;;11.93;4.07;;;;;;;25.48;49.56;101251.91;4991904;28;20042;-64
2022/10/26 09:11:12;;;;;;;12.27;4.30;;;;;;;25.54;53.99;101258.25;5003712;28;20033;-64
2022/10/26 09:13:56;;;;;;;10.00;3.75;;;;;;;25.47;49.57;101263.50;5008065;28;20052;-64
2022/10/26 09:16:34;;;;;;;13.07;4.18;;;;;;;25.92;50.92;101269.91;5006371;28;20033;-64
2022/10/26 09:19:09;;;;;;;;;;;;;;;26.50;53.77;101273.59;4995658;28;20018;-64
2022/10/26 09:21:49;;;;;;;8.48;3.53;;;;;;;25.85;50.56;101287.28;5004136;28;20354;-64
2022/10/26 09:24:25;;;;;;;12.75;3.45;;;;;;;25.81;49.73;101297.50;5004130;28;20040;-64
2022/10/26 09:27:05;;;;;;;10.88;3.83;;;;;;;26.20;48.53;101295.84;5002272;28;20456;-64
2022/10/26 09:29:38;;;;;;;9.35;4.40;;;;;;;25.87;48.38;101287.75;4993764;28;20045;-64
2022/10/26 09:32:13;;;;;;;9.10;3.63;;;;;;;26.10;48.56;101298.94;4998831;28;20099;-63
2022/10/26 09:34:46;;;;;;;9.60;3.55;;;;;;;25.85;48.90;101312.59;5000594;28;20141;-63
2022/10/26 09:37:22;;;;;;;9.57;3.47;;;;;;;25.86;49.39;101313.41;4997440;28;20026;-63
2022/10/26 09:40:11;;;;;;;10.95;3.47;;;;;;;26.33;50.06;101320.25;4995715;28;20038;-63
2022/10/26 09:42:45;;;;;;;12.57;3.20;;;;;;;26.76;48.57;101324.38;4996293;28;20159;-63
2022/10/26 09:45:18;;;;;;;8.80;2.97;;;;;;;27.01;46.04;101331.19;5003938;28;20045;-64
2022/10/26 09:47:51;;;;;;;10.95;3.95;;;;;;;26.94;45.46;101333.69;5006307;28;20034;-63
2022/10/26 09:50:19;;;;;;;7.95;3.10;;;;;;;26.18;46.88;101340.41;5004296;28;20034;-63
2022/10/26 09:52:44;;;;;;;7.97;3.50;;;;;;;25.18;49.05;101337.88;5006082;28;20037;-63
2022/10/26 09:55:11;;;;;;;11.00;3.88;;;;;;;24.59;50.92;101332.16;5007674;28;20668;-64
2022/10/26 09:57:41;;;;;;;10.15;3.40;;;;;;;24.00;52.99;101333.03;5007310;28;20018;-63
2022/10/26 10:00:12;;;;;;;9.43;3.53;;;;;;;24.78;52.80;101343.25;4997619;28;20376;-64
2022/10/26 10:02:42;;;;;;;11.02;3.47;;;;;;;24.76;51.02;101339.09;4998477;28;20057;-64
2022/10/26 10:05:28;;;;;;;9.63;3.53;;;;;;;25.43;52.89;101341.22;5006100;28;20022;-64
2022/10/26 10:08:14;;;;;;;10.27;2.97;;;;;;;26.47;49.33;101350.31;5005357;28;20026;-63
2022/10/26 10:10:54;;;;;;;7.90;3.15;;;;;;;27.01;47.28;101363.03;5007187;28;20037;-64
2022/10/26 10:13:21;;;;;;;10.15;3.30;;;;;;;26.43;46.11;101364.22;5005738;28;20065;-64
2022/10/26 10:15:58;;;;;;;9.13;2.92;;;;;;;26.22;47.81;101371.56;5005241;28;20172;-64
2022/10/26 10:18:23;;;;;;;9.00;3.15;;;;;;;26.45;46.19;101367.53;5005893;28;20174;-63
2022/10/26 10:20:56;;;;;;;10.48;3.15;;;;;;;26.85;46.52;101375.94;5007906;28;20030;-65
2022/10/26 10:23:32;;;;;;;9.48;2.83;;;;;;;27.51;46.18;101381.53;5010653;28;20034;-64
2022/10/26 10:26:07;;;;;;;9.35;3.03;;;;;;;27.17;45.34;101380.38;5000557;28;20385;-63
2022/10/26 10:28:34;;;;;;;7.57;2.58;;;;;;;27.28;44.17;101384.50;5006749;28;20116;-64
2022/10/26 10:31:04;;;;;;;9.18;2.90;;;;;;;26.29;46.56;101394.44;5010519;28;20026;-63
2022/10/26 10:33:38;;;;;;;8.43;2.97;;;;;;;26.25;48.41;101404.69;5010954;28;20076;-63
2022/10/26 10:36:15;;;;;;;7.32;2.95;;;;;;;26.48;48.65;101402.69;5009789;28;20030;-63
2022/10/26 10:38:46;;;;;;;8.70;2.90;;;;;;;26.92;46.80;101401.69;5008774;28;20057;-63
2022/10/26 10:41:31;;;;;;;8.90;2.80;;;;;;;27.24;46.21;101399.59;5009991;28;20065;-63
2022/10/26 10:44:07;;;;;;;7.45;2.72;;;;;;;27.66;45.64;101403.59;5008381;28;20041;-63
2022/10/26 10:46:33;;;;;;;7.93;2.50;;;;;;;28.59;42.40;101404.91;5009729;28;20116;-63
2022/10/26 10:49:17;;;;;;;7.45;2.67;;;;;;;28.97;43.88;101404.91;5008115;28;20033;-64
2022/10/26 10:51:43;;;;;;;8.02;2.67;;;;;;;29.12;41.43;101420.44;5004221;28;20054;-64
2022/10/26 10:54:38;;;;;;;7.65;2.88;;;;;;;28.79;42.52;101425.91;4990197;28;20064;-64
2022/10/26 10:57:28;;;;;;;8.13;2.40;;;;;;;28.98;43.91;101419.88;4994174;28;20181;-63
2022/10/26 11:00:05;;;;;;;7.18;2.50;;;;;;;28.90;42.51;101421.56;5000187;28;20044;-63
2022/10/26 11:03:00;;;;;;;6.60;2.40;;;;;;;28.91;42.79;101435.34;4990539;28;20065;-63
2022/10/26 11:05:44;;;;;;;6.82;2.40;;;;;;;27.81;43.58;101434.16;5008588;28;20033;-63
2022/10/26 11:08:31;;;;;;;8.38;2.38;;;;;;;27.08;46.08;101439.56;5006320;28;20041;-63
2022/10/26 11:11:03;;;;;;;7.35;2.20;;;;;;;25.32;49.85;101442.69;5008693;28;20073;-63
2022/10/26 11:13:40;;;;;;;7.30;2.60;;;;;;;25.75;50.83;101442.31;5009141;28;20125;-64
2022/10/26 11:16:13;;;;;;;7.03;2.33;;;;;;;25.84;49.79;101443.19;5009501;28;20109;-63
2022/10/26 11:18:44;;;;;;;8.55;2.30;;;;;;;25.48;50.23;101445.16;5008695;28;20022;-64
2022/10/26 11:21:29;;;;;;;6.70;2.30;;;;;;;24.72;53.69;101456.88;5008546;28;20033;-64
2022/10/26 11:24:09;;;;;;;7.15;2.80;;;;;;;23.59;55.37;101451.50;5007139;28;20022;-64
2022/10/26 11:26:43;;;;;;;8.55;2.85;;;;;;;22.98;57.81;101469.19;4994662;28;20045;-64
2022/10/26 11:29:22;;;;;;;6.82;2.90;;;;;;;23.14;57.78;101467.00;5005595;28;20069;-64